Aérodrome :
LOGIN :

S'inscrire | Disclaimer

   EN    FR    IT 

 










Légende :    VFR   VFR Marginal   IFR   IFR Intensif   IFR Très Intensif
Visi : 
Plafond : 
>= 8 km
>= 3000ft
5 à 8 km
1000 à 3000 ft
1500m à 5 km
500 à 1000 ft
800 à 1500m
200 à 500 ft
< 800m
< 200 ft
Symboles :   Orages  Brouillard  Fortes neiges  Fortes précipitations  Vent > 20 kt
SIGMETs :   Divers  Orages  Givrage  Turbulence  Onde Orograph.  Cendres Volcan.







- Altitude de l'aérodrome : 1020 ft
- Code IATA : ILZ


LZZI - Žilina

DERNIER METAR :
  • 210100Z VRB02KT 9999 BKN034 03/01 Q1015

METARs EXPIRÉS :
  • 210030Z 06002KT 9999 BKN035 03/01 Q1015
  • 210000Z VRB01KT 9999 BKN031 03/01 Q1015
  • 202330Z 14002KT 9999 BKN032 03/01 Q1014
  • 202300Z 00000KT 9999 BKN035 03/01 Q1014
  • 202230Z VRB01KT 9999 BKN035 03/01 Q1014

TAF TAF LZZI
Valide du 21 à 00h jusqu'au 21 à 09h UTC


202300Z 2100/2109 VRB02KT 9999 BKN030
BECMG 2103/2105 4000 BR FEW004 SCT020
PROB30
TEMPO 2105/2108 1200 BCFG BR BKN004
Pas de NOTAMs connus pour ce terrain.



MET'MAP, la Météo Aéronautique d'un coup d'oeil ! - Copyright ORBIFLY Décembre 2007 - Disclaimer

ORBIFLY MET'MAP TEAM :

Programmation & Développement : Alexandra Zaïnal
Conception & Développement : Baudouin d'Aumeries
Co-Programmation & Développement : Marc-Olivier Méhu
Soutien technique & logistique : Manuel Goepfert

Contact : metmap@orbifly.com




SOURCES & CREDITS :

   NOAA